sensor_id;sensor_type;location;lat;lon;timestamp;P1;durP1;ratioP1;P2;durP2;ratioP2
76105;SDS011;64832;45.274;5.880;2023-11-21T00:01:39;6.55;;;5.00;;
76105;SDS011;64832;45.274;5.880;2023-11-21T00:04:05;8.45;;;4.97;;
76105;SDS011;64832;45.274;5.880;2023-11-21T00:06:32;7.25;;;4.70;;
76105;SDS011;64832;45.274;5.880;2023-11-21T00:08:57;11.23;;;5.30;;
76105;SDS011;64832;45.274;5.880;2023-11-21T00:11:23;6.07;;;4.45;;
76105;SDS011;64832;45.274;5.880;2023-11-21T00:13:50;6.25;;;4.97;;
76105;SDS011;64832;45.274;5.880;2023-11-21T00:16:15;8.48;;;5.18;;
76105;SDS011;64832;45.274;5.880;2023-11-21T00:18:40;7.35;;;5.00;;
76105;SDS011;64832;45.274;5.880;2023-11-21T00:21:06;12.13;;;5.20;;
76105;SDS011;64832;45.274;5.880;2023-11-21T00:23:32;8.77;;;4.85;;
76105;SDS011;64832;45.274;5.880;2023-11-21T00:25:57;6.72;;;4.65;;
76105;SDS011;64832;45.274;5.880;2023-11-21T00:28:22;7.82;;;5.00;;
76105;SDS011;64832;45.274;5.880;2023-11-21T00:30:48;6.93;;;4.55;;
76105;SDS011;64832;45.274;5.880;2023-11-21T00:33:13;5.47;;;4.30;;
76105;SDS011;64832;45.274;5.880;2023-11-21T00:35:38;6.95;;;4.75;;
76105;SDS011;64832;45.274;5.880;2023-11-21T00:38:04;9.32;;;4.43;;
76105;SDS011;64832;45.274;5.880;2023-11-21T00:40:29;7.88;;;5.03;;
76105;SDS011;64832;45.274;5.880;2023-11-21T00:42:55;8.02;;;4.65;;
76105;SDS011;64832;45.274;5.880;2023-11-21T00:45:21;6.10;;;4.40;;
76105;SDS011;64832;45.274;5.880;2023-11-21T00:47:46;5.88;;;4.60;;
76105;SDS011;64832;45.274;5.880;2023-11-21T00:50:12;7.88;;;4.65;;
76105;SDS011;64832;45.274;5.880;2023-11-21T00:52:37;6.28;;;4.82;;
76105;SDS011;64832;45.274;5.880;2023-11-21T00:55:03;6.30;;;4.50;;
76105;SDS011;64832;45.274;5.880;2023-11-21T00:57:29;9.55;;;4.45;;
76105;SDS011;64832;45.274;5.880;2023-11-21T00:59:55;8.43;;;4.72;;
76105;SDS011;64832;45.274;5.880;2023-11-21T01:02:20;5.55;;;4.65;;
76105;SDS011;64832;45.274;5.880;2023-11-21T01:04:45;6.25;;;4.32;;
76105;SDS011;64832;45.274;5.880;2023-11-21T01:07:12;6.63;;;4.35;;
76105;SDS011;64832;45.274;5.880;2023-11-21T01:09:38;5.68;;;4.20;;
76105;SDS011;64832;45.274;5.880;2023-11-21T01:12:03;5.25;;;4.45;;
76105;SDS011;64832;45.274;5.880;2023-11-21T01:14:29;12.20;;;4.30;;
76105;SDS011;64832;45.274;5.880;2023-11-21T01:16:54;9.23;;;4.47;;
76105;SDS011;64832;45.274;5.880;2023-11-21T01:19:20;9.23;;;4.50;;
76105;SDS011;64832;45.274;5.880;2023-11-21T01:21:45;11.48;;;4.68;;
76105;SDS011;64832;45.274;5.880;2023-11-21T01:24:11;12.50;;;4.80;;
76105;SDS011;64832;45.274;5.880;2023-11-21T01:26:36;7.60;;;4.13;;
76105;SDS011;64832;45.274;5.880;2023-11-21T01:29:01;8.25;;;4.25;;
76105;SDS011;64832;45.274;5.880;2023-11-21T01:31:27;6.55;;;4.35;;
76105;SDS011;64832;45.274;5.880;2023-11-21T01:33:54;11.82;;;4.13;;
76105;SDS011;64832;45.274;5.880;2023-11-21T01:36:20;11.55;;;4.07;;
76105;SDS011;64832;45.274;5.880;2023-11-21T01:38:46;14.35;;;4.28;;
76105;SDS011;64832;45.274;5.880;2023-11-21T01:41:13;8.32;;;4.80;;
76105;SDS011;64832;45.274;5.880;2023-11-21T01:43:39;8.30;;;4.53;;
76105;SDS011;64832;45.274;5.880;2023-11-21T01:46:04;9.93;;;3.97;;
76105;SDS011;64832;45.274;5.880;2023-11-21T01:48:31;8.73;;;3.83;;
76105;SDS011;64832;45.274;5.880;2023-11-21T01:50:57;10.07;;;4.15;;
76105;SDS011;64832;45.274;5.880;2023-11-21T01:53:26;8.45;;;4.10;;
76105;SDS011;64832;45.274;5.880;2023-11-21T01:55:53;10.57;;;4.28;;
76105;SDS011;64832;45.274;5.880;2023-11-21T01:58:20;10.02;;;4.00;;
76105;SDS011;64832;45.274;5.880;2023-11-21T02:00:46;7.15;;;3.92;;
76105;SDS011;64832;45.274;5.880;2023-11-21T02:03:15;6.28;;;3.75;;
76105;SDS011;64832;45.274;5.880;2023-11-21T02:05:41;7.65;;;3.78;;
76105;SDS011;64832;45.274;5.880;2023-11-21T02:08:07;7.47;;;3.60;;
76105;SDS011;64832;45.274;5.880;2023-11-21T02:10:34;7.47;;;3.90;;
76105;SDS011;64832;45.274;5.880;2023-11-21T02:13:02;5.78;;;3.95;;
76105;SDS011;64832;45.274;5.880;2023-11-21T02:15:27;4.88;;;3.88;;
76105;SDS011;64832;45.274;5.880;2023-11-21T02:17:54;9.82;;;3.78;;
76105;SDS011;64832;45.274;5.880;2023-11-21T02:20:20;8.48;;;3.47;;
76105;SDS011;64832;45.274;5.880;2023-11-21T02:22:49;9.52;;;3.63;;
76105;SDS011;64832;45.274;5.880;2023-11-21T02:25:20;7.38;;;3.53;;
76105;SDS011;64832;45.274;5.880;2023-11-21T02:27:46;12.32;;;3.60;;
76105;SDS011;64832;45.274;5.880;2023-11-21T02:30:13;5.43;;;3.17;;
76105;SDS011;64832;45.274;5.880;2023-11-21T02:32:39;6.82;;;3.33;;
76105;SDS011;64832;45.274;5.880;2023-11-21T02:35:07;5.28;;;3.42;;
76105;SDS011;64832;45.274;5.880;2023-11-21T02:37:33;5.25;;;3.28;;
76105;SDS011;64832;45.274;5.880;2023-11-21T02:40:00;7.30;;;3.28;;
76105;SDS011;64832;45.274;5.880;2023-11-21T02:42:27;6.70;;;3.20;;
76105;SDS011;64832;45.274;5.880;2023-11-21T02:44:52;7.10;;;3.70;;
76105;SDS011;64832;45.274;5.880;2023-11-21T02:47:18;9.02;;;3.35;;
76105;SDS011;64832;45.274;5.880;2023-11-21T02:49:43;4.25;;;3.25;;
76105;SDS011;64832;45.274;5.880;2023-11-21T02:52:08;7.10;;;3.10;;
76105;SDS011;64832;45.274;5.880;2023-11-21T02:54:34;5.22;;;3.30;;
76105;SDS011;64832;45.274;5.880;2023-11-21T02:57:01;5.03;;;3.30;;
76105;SDS011;64832;45.274;5.880;2023-11-21T02:59:27;5.47;;;2.90;;
76105;SDS011;64832;45.274;5.880;2023-11-21T03:01:52;5.47;;;3.20;;
76105;SDS011;64832;45.274;5.880;2023-11-21T03:04:18;5.07;;;2.97;;
76105;SDS011;64832;45.274;5.880;2023-11-21T03:06:44;8.10;;;2.75;;
76105;SDS011;64832;45.274;5.880;2023-11-21T03:09:10;5.28;;;2.78;;
76105;SDS011;64832;45.274;5.880;2023-11-21T03:11:39;5.38;;;3.00;;
76105;SDS011;64832;45.274;5.880;2023-11-21T03:14:04;5.20;;;3.10;;
76105;SDS011;64832;45.274;5.880;2023-11-21T03:16:30;7.40;;;2.90;;
76105;SDS011;64832;45.274;5.880;2023-11-21T03:18:56;4.28;;;2.70;;
76105;SDS011;64832;45.274;5.880;2023-11-21T03:21:22;3.55;;;2.60;;
76105;SDS011;64832;45.274;5.880;2023-11-21T03:23:47;5.47;;;2.63;;
76105;SDS011;64832;45.274;5.880;2023-11-21T03:26:12;4.40;;;2.70;;
76105;SDS011;64832;45.274;5.880;2023-11-21T03:28:38;4.72;;;2.70;;
76105;SDS011;64832;45.274;5.880;2023-11-21T03:31:04;5.25;;;2.80;;
76105;SDS011;64832;45.274;5.880;2023-11-21T03:33:31;6.30;;;2.90;;
76105;SDS011;64832;45.274;5.880;2023-11-21T03:35:57;4.53;;;2.33;;
76105;SDS011;64832;45.274;5.880;2023-11-21T03:38:22;3.67;;;2.50;;
76105;SDS011;64832;45.274;5.880;2023-11-21T03:40:48;5.65;;;2.30;;
76105;SDS011;64832;45.274;5.880;2023-11-21T03:43:13;4.25;;;2.53;;
76105;SDS011;64832;45.274;5.880;2023-11-21T03:45:39;8.27;;;2.80;;
76105;SDS011;64832;45.274;5.880;2023-11-21T03:48:06;7.70;;;2.70;;
76105;SDS011;64832;45.274;5.880;2023-11-21T03:50:32;3.67;;;2.10;;
76105;SDS011;64832;45.274;5.880;2023-11-21T03:52:57;5.40;;;2.45;;
76105;SDS011;64832;45.274;5.880;2023-11-21T03:55:22;3.47;;;2.10;;
76105;SDS011;64832;45.274;5.880;2023-11-21T03:57:51;3.28;;;2.08;;
76105;SDS011;64832;45.274;5.880;2023-11-21T04:00:16;3.35;;;2.38;;
76105;SDS011;64832;45.274;5.880;2023-11-21T04:02:42;4.10;;;2.38;;
76105;SDS011;64832;45.274;5.880;2023-11-21T04:05:08;5.20;;;2.92;;
76105;SDS011;64832;45.274;5.880;2023-11-21T04:07:34;3.00;;;2.20;;
76105;SDS011;64832;45.274;5.880;2023-11-21T04:10:00;3.22;;;2.10;;
76105;SDS011;64832;45.274;5.880;2023-11-21T04:12:25;4.90;;;2.20;;
76105;SDS011;64832;45.274;5.880;2023-11-21T04:14:50;3.45;;;2.20;;
76105;SDS011;64832;45.274;5.880;2023-11-21T04:17:18;7.40;;;2.25;;
76105;SDS011;64832;45.274;5.880;2023-11-21T04:19:44;4.90;;;1.90;;
76105;SDS011;64832;45.274;5.880;2023-11-21T04:22:11;4.07;;;2.10;;
76105;SDS011;64832;45.274;5.880;2023-11-21T04:24:36;2.83;;;1.95;;
76105;SDS011;64832;45.274;5.880;2023-11-21T04:27:02;4.07;;;2.10;;
76105;SDS011;64832;45.274;5.880;2023-11-21T04:29:28;3.30;;;1.88;;
76105;SDS011;64832;45.274;5.880;2023-11-21T04:31:53;4.75;;;1.88;;
76105;SDS011;64832;45.274;5.880;2023-11-21T04:34:19;2.75;;;1.67;;
76105;SDS011;64832;45.274;5.880;2023-11-21T04:36:44;3.05;;;1.80;;
76105;SDS011;64832;45.274;5.880;2023-11-21T04:39:09;5.43;;;2.00;;
76105;SDS011;64832;45.274;5.880;2023-11-21T04:41:36;2.88;;;1.52;;
76105;SDS011;64832;45.274;5.880;2023-11-21T04:44:04;3.80;;;1.85;;
76105;SDS011;64832;45.274;5.880;2023-11-21T04:46:30;3.50;;;1.80;;
76105;SDS011;64832;45.274;5.880;2023-11-21T04:48:56;2.03;;;1.70;;
76105;SDS011;64832;45.274;5.880;2023-11-21T04:51:21;3.63;;;1.60;;
76105;SDS011;64832;45.274;5.880;2023-11-21T04:53:46;3.05;;;1.60;;
76105;SDS011;64832;45.274;5.880;2023-11-21T04:56:12;2.90;;;1.90;;
76105;SDS011;64832;45.274;5.880;2023-11-21T04:58:37;2.45;;;1.80;;
76105;SDS011;64832;45.274;5.880;2023-11-21T05:01:04;3.05;;;1.50;;
76105;SDS011;64832;45.274;5.880;2023-11-21T05:03:30;2.47;;;1.77;;
76105;SDS011;64832;45.274;5.880;2023-11-21T05:05:57;2.15;;;1.45;;
76105;SDS011;64832;45.274;5.880;2023-11-21T05:08:22;1.88;;;1.60;;
76105;SDS011;64832;45.274;5.880;2023-11-21T05:10:47;3.10;;;1.67;;
76105;SDS011;64832;45.274;5.880;2023-11-21T05:13:14;3.17;;;1.58;;
76105;SDS011;64832;45.274;5.880;2023-11-21T05:15:42;3.13;;;1.60;;
76105;SDS011;64832;45.274;5.880;2023-11-21T05:18:07;2.85;;;1.60;;
76105;SDS011;64832;45.274;5.880;2023-11-21T05:20:33;4.28;;;1.60;;
76105;SDS011;64832;45.274;5.880;2023-11-21T05:22:58;3.00;;;1.80;;
76105;SDS011;64832;45.274;5.880;2023-11-21T05:25:23;2.25;;;1.75;;
76105;SDS011;64832;45.274;5.880;2023-11-21T05:27:49;2.35;;;1.80;;
76105;SDS011;64832;45.274;5.880;2023-11-21T05:30:15;1.92;;;1.50;;
76105;SDS011;64832;45.274;5.880;2023-11-21T05:32:41;2.53;;;1.42;;
76105;SDS011;64832;45.274;5.880;2023-11-21T05:35:09;2.17;;;1.35;;
76105;SDS011;64832;45.274;5.880;2023-11-21T05:37:40;2.33;;;1.45;;
76105;SDS011;64832;45.274;5.880;2023-11-21T05:40:06;5.60;;;1.50;;
76105;SDS011;64832;45.274;5.880;2023-11-21T05:42:32;1.70;;;1.23;;
76105;SDS011;64832;45.274;5.880;2023-11-21T05:44:58;3.42;;;1.50;;
76105;SDS011;64832;45.274;5.880;2023-11-21T05:47:24;3.30;;;1.40;;
76105;SDS011;64832;45.274;5.880;2023-11-21T05:49:51;4.00;;;1.58;;
76105;SDS011;64832;45.274;5.880;2023-11-21T05:52:17;3.72;;;1.30;;
76105;SDS011;64832;45.274;5.880;2023-11-21T05:54:42;2.72;;;1.33;;
76105;SDS011;64832;45.274;5.880;2023-11-21T05:57:08;2.20;;;1.40;;
76105;SDS011;64832;45.274;5.880;2023-11-21T05:59:33;7.40;;;1.80;;
76105;SDS011;64832;45.274;5.880;2023-11-21T06:01:59;1.90;;;1.38;;
76105;SDS011;64832;45.274;5.880;2023-11-21T06:04:24;1.92;;;1.30;;
76105;SDS011;64832;45.274;5.880;2023-11-21T06:06:51;2.90;;;1.45;;
76105;SDS011;64832;45.274;5.880;2023-11-21T06:09:17;4.22;;;1.40;;
76105;SDS011;64832;45.274;5.880;2023-11-21T06:11:43;5.57;;;1.30;;
76105;SDS011;64832;45.274;5.880;2023-11-21T06:14:08;3.92;;;1.23;;
76105;SDS011;64832;45.274;5.880;2023-11-21T06:16:34;2.25;;;1.20;;
76105;SDS011;64832;45.274;5.880;2023-11-21T06:19:00;2.13;;;1.70;;
76105;SDS011;64832;45.274;5.880;2023-11-21T06:21:26;5.30;;;1.60;;
76105;SDS011;64832;45.274;5.880;2023-11-21T06:23:51;2.80;;;1.85;;
76105;SDS011;64832;45.274;5.880;2023-11-21T06:26:18;3.58;;;1.52;;
76105;SDS011;64832;45.274;5.880;2023-11-21T06:28:43;4.07;;;1.90;;
76105;SDS011;64832;45.274;5.880;2023-11-21T06:31:09;2.00;;;1.50;;
76105;SDS011;64832;45.274;5.880;2023-11-21T06:33:35;8.25;;;1.73;;
76105;SDS011;64832;45.274;5.880;2023-11-21T06:36:01;3.70;;;1.67;;
76105;SDS011;64832;45.274;5.880;2023-11-21T06:38:30;4.15;;;1.50;;
76105;SDS011;64832;45.274;5.880;2023-11-21T06:40:57;3.78;;;1.70;;
76105;SDS011;64832;45.274;5.880;2023-11-21T06:43:23;2.55;;;1.73;;
76105;SDS011;64832;45.274;5.880;2023-11-21T06:45:48;4.32;;;1.52;;
76105;SDS011;64832;45.274;5.880;2023-11-21T06:48:14;4.32;;;1.60;;
76105;SDS011;64832;45.274;5.880;2023-11-21T06:50:39;6.55;;;1.40;;
76105;SDS011;64832;45.274;5.880;2023-11-21T06:53:05;3.28;;;1.40;;
76105;SDS011;64832;45.274;5.880;2023-11-21T06:55:32;6.47;;;1.70;;
76105;SDS011;64832;45.274;5.880;2023-11-21T06:57:58;2.55;;;1.48;;
76105;SDS011;64832;45.274;5.880;2023-11-21T07:00:25;3.05;;;1.75;;
76105;SDS011;64832;45.274;5.880;2023-11-21T07:02:52;5.00;;;1.70;;
76105;SDS011;64832;45.274;5.880;2023-11-21T07:05:18;5.13;;;2.20;;
76105;SDS011;64832;45.274;5.880;2023-11-21T07:07:46;15.73;;;2.05;;
76105;SDS011;64832;45.274;5.880;2023-11-21T07:10:11;9.60;;;2.53;;
76105;SDS011;64832;45.274;5.880;2023-11-21T07:12:36;6.00;;;2.30;;
76105;SDS011;64832;45.274;5.880;2023-11-21T07:15:02;11.68;;;2.63;;
76105;SDS011;64832;45.274;5.880;2023-11-21T07:17:30;7.97;;;2.20;;
76105;SDS011;64832;45.274;5.880;2023-11-21T07:19:56;5.70;;;1.92;;
76105;SDS011;64832;45.274;5.880;2023-11-21T07:22:21;6.72;;;2.03;;
76105;SDS011;64832;45.274;5.880;2023-11-21T07:24:50;4.93;;;1.83;;
76105;SDS011;64832;45.274;5.880;2023-11-21T07:27:18;3.45;;;1.92;;
76105;SDS011;64832;45.274;5.880;2023-11-21T07:29:44;6.80;;;2.30;;
76105;SDS011;64832;45.274;5.880;2023-11-21T07:32:09;3.92;;;1.60;;
76105;SDS011;64832;45.274;5.880;2023-11-21T07:34:35;2.95;;;1.67;;
76105;SDS011;64832;45.274;5.880;2023-11-21T07:37:01;5.18;;;1.90;;
76105;SDS011;64832;45.274;5.880;2023-11-21T07:39:27;3.13;;;1.73;;
76105;SDS011;64832;45.274;5.880;2023-11-21T07:41:53;4.18;;;1.75;;
76105;SDS011;64832;45.274;5.880;2023-11-21T07:44:18;3.15;;;1.58;;
76105;SDS011;64832;45.274;5.880;2023-11-21T07:46:44;4.90;;;1.60;;
76105;SDS011;64832;45.274;5.880;2023-11-21T07:49:10;3.20;;;1.50;;
76105;SDS011;64832;45.274;5.880;2023-11-21T07:51:35;4.93;;;1.45;;
76105;SDS011;64832;45.274;5.880;2023-11-21T07:54:01;4.55;;;1.42;;
76105;SDS011;64832;45.274;5.880;2023-11-21T07:56:26;3.08;;;1.48;;
76105;SDS011;64832;45.274;5.880;2023-11-21T07:58:52;4.20;;;1.40;;
76105;SDS011;64832;45.274;5.880;2023-11-21T08:01:17;4.35;;;1.40;;
76105;SDS011;64832;45.274;5.880;2023-11-21T08:03:43;6.10;;;1.52;;
76105;SDS011;64832;45.274;5.880;2023-11-21T08:06:09;4.15;;;1.60;;
76105;SDS011;64832;45.274;5.880;2023-11-21T08:08:34;9.50;;;1.52;;
76105;SDS011;64832;45.274;5.880;2023-11-21T08:10:59;2.95;;;1.48;;
76105;SDS011;64832;45.274;5.880;2023-11-21T08:13:27;2.80;;;1.30;;
76105;SDS011;64832;45.274;5.880;2023-11-21T08:15:54;2.80;;;1.70;;
76105;SDS011;64832;45.274;5.880;2023-11-21T08:18:21;5.68;;;1.40;;
76105;SDS011;64832;45.274;5.880;2023-11-21T08:20:46;3.05;;;1.50;;
76105;SDS011;64832;45.274;5.880;2023-11-21T08:23:15;2.78;;;1.40;;
76105;SDS011;64832;45.274;5.880;2023-11-21T08:25:43;1.52;;;1.33;;
76105;SDS011;64832;45.274;5.880;2023-11-21T08:28:09;2.50;;;1.42;;
76105;SDS011;64832;45.274;5.880;2023-11-21T08:30:35;3.08;;;1.55;;
76105;SDS011;64832;45.274;5.880;2023-11-21T08:33:00;5.28;;;2.00;;
76105;SDS011;64832;45.274;5.880;2023-11-21T08:35:25;2.85;;;1.55;;
76105;SDS011;64832;45.274;5.880;2023-11-21T08:37:51;2.90;;;1.30;;
76105;SDS011;64832;45.274;5.880;2023-11-21T08:40:18;4.22;;;1.60;;
76105;SDS011;64832;45.274;5.880;2023-11-21T08:42:44;4.55;;;1.70;;
76105;SDS011;64832;45.274;5.880;2023-11-21T08:45:10;3.50;;;1.50;;
76105;SDS011;64832;45.274;5.880;2023-11-21T08:47:37;5.35;;;1.80;;
76105;SDS011;64832;45.274;5.880;2023-11-21T08:50:03;3.92;;;1.63;;
76105;SDS011;64832;45.274;5.880;2023-11-21T08:52:31;4.30;;;1.58;;
76105;SDS011;64832;45.274;5.880;2023-11-21T08:54:56;1.80;;;1.20;;
76105;SDS011;64832;45.274;5.880;2023-11-21T08:57:22;3.90;;;1.48;;
76105;SDS011;64832;45.274;5.880;2023-11-21T08:59:48;2.15;;;1.20;;
76105;SDS011;64832;45.274;5.880;2023-11-21T09:02:13;2.55;;;1.55;;
76105;SDS011;64832;45.274;5.880;2023-11-21T09:04:39;2.67;;;1.60;;
76105;SDS011;64832;45.274;5.880;2023-11-21T09:07:04;6.72;;;1.55;;
76105;SDS011;64832;45.274;5.880;2023-11-21T09:09:30;3.55;;;1.48;;
76105;SDS011;64832;45.274;5.880;2023-11-21T09:11:55;3.47;;;1.40;;
76105;SDS011;64832;45.274;5.880;2023-11-21T09:14:21;3.55;;;1.33;;
76105;SDS011;64832;45.274;5.880;2023-11-21T09:16:46;2.72;;;1.45;;
76105;SDS011;64832;45.274;5.880;2023-11-21T09:19:12;3.85;;;1.42;;
76105;SDS011;64832;45.274;5.880;2023-11-21T09:21:39;2.40;;;1.67;;
76105;SDS011;64832;45.274;5.880;2023-11-21T09:24:04;2.35;;;1.35;;
76105;SDS011;64832;45.274;5.880;2023-11-21T09:26:30;1.90;;;1.40;;
76105;SDS011;64832;45.274;5.880;2023-11-21T09:28:55;4.00;;;1.55;;
76105;SDS011;64832;45.274;5.880;2023-11-21T09:31:21;1.80;;;1.30;;
76105;SDS011;64832;45.274;5.880;2023-11-21T09:33:47;2.95;;;1.50;;
76105;SDS011;64832;45.274;5.880;2023-11-21T09:36:13;2.95;;;1.50;;
76105;SDS011;64832;45.274;5.880;2023-11-21T09:38:39;2.33;;;1.10;;
76105;SDS011;64832;45.274;5.880;2023-11-21T09:41:06;3.13;;;1.45;;
76105;SDS011;64832;45.274;5.880;2023-11-21T09:43:46;3.90;;;1.30;;
76105;SDS011;64832;45.274;5.880;2023-11-21T09:46:17;3.35;;;1.23;;
76105;SDS011;64832;45.274;5.880;2023-11-21T09:48:50;3.00;;;1.50;;
76105;SDS011;64832;45.274;5.880;2023-11-21T09:51:18;2.60;;;1.45;;
76105;SDS011;64832;45.274;5.880;2023-11-21T09:53:46;2.15;;;1.30;;
76105;SDS011;64832;45.274;5.880;2023-11-21T09:56:14;1.50;;;1.23;;
76105;SDS011;64832;45.274;5.880;2023-11-21T09:58:44;3.13;;;1.10;;
76105;SDS011;64832;45.274;5.880;2023-11-21T10:01:09;1.40;;;1.30;;
76105;SDS011;64832;45.274;5.880;2023-11-21T10:03:37;2.53;;;1.30;;
76105;SDS011;64832;45.274;5.880;2023-11-21T10:06:03;2.33;;;1.35;;
76105;SDS011;64832;45.274;5.880;2023-11-21T10:08:30;2.88;;;1.35;;
76105;SDS011;64832;45.274;5.880;2023-11-21T10:10:57;3.28;;;1.33;;
76105;SDS011;64832;45.274;5.880;2023-11-21T10:13:24;2.42;;;1.35;;
76105;SDS011;64832;45.274;5.880;2023-11-21T10:15:52;2.30;;;1.40;;
76105;SDS011;64832;45.274;5.880;2023-11-21T10:18:18;1.88;;;1.08;;
76105;SDS011;64832;45.274;5.880;2023-11-21T10:20:44;2.38;;;1.30;;
76105;SDS011;64832;45.274;5.880;2023-11-21T10:23:17;1.67;;;1.20;;
76105;SDS011;64832;45.274;5.880;2023-11-21T10:25:47;2.30;;;1.15;;
76105;SDS011;64832;45.274;5.880;2023-11-21T10:28:13;1.33;;;1.13;;
76105;SDS011;64832;45.274;5.880;2023-11-21T10:30:39;1.40;;;1.00;;
76105;SDS011;64832;45.274;5.880;2023-11-21T10:33:05;2.22;;;1.10;;
76105;SDS011;64832;45.274;5.880;2023-11-21T10:35:47;2.42;;;1.20;;
76105;SDS011;64832;45.274;5.880;2023-11-21T10:38:17;1.73;;;1.23;;
76105;SDS011;64832;45.274;5.880;2023-11-21T10:40:43;1.27;;;1.00;;
76105;SDS011;64832;45.274;5.880;2023-11-21T10:43:09;1.48;;;1.08;;
76105;SDS011;64832;45.274;5.880;2023-11-21T10:45:38;1.35;;;1.10;;
76105;SDS011;64832;45.274;5.880;2023-11-21T10:48:05;3.20;;;1.23;;
76105;SDS011;64832;45.274;5.880;2023-11-21T10:50:33;1.92;;;1.10;;
76105;SDS011;64832;45.274;5.880;2023-11-21T10:53:02;1.38;;;0.90;;
76105;SDS011;64832;45.274;5.880;2023-11-21T10:55:29;1.50;;;1.30;;
76105;SDS011;64832;45.274;5.880;2023-11-21T10:57:56;1.63;;;1.10;;
76105;SDS011;64832;45.274;5.880;2023-11-21T11:00:24;2.83;;;1.30;;
76105;SDS011;64832;45.274;5.880;2023-11-21T11:02:52;2.15;;;1.13;;
76105;SDS011;64832;45.274;5.880;2023-11-21T11:05:21;2.28;;;1.20;;
76105;SDS011;64832;45.274;5.880;2023-11-21T11:07:50;1.67;;;1.10;;
76105;SDS011;64832;45.274;5.880;2023-11-21T11:10:22;1.63;;;1.00;;
76105;SDS011;64832;45.274;5.880;2023-11-21T11:12:51;1.45;;;1.10;;
76105;SDS011;64832;45.274;5.880;2023-11-21T11:15:17;1.73;;;1.00;;
76105;SDS011;64832;45.274;5.880;2023-11-21T11:17:44;3.17;;;1.30;;
76105;SDS011;64832;45.274;5.880;2023-11-21T11:20:12;2.58;;;1.10;;
76105;SDS011;64832;45.274;5.880;2023-11-21T11:23:04;1.95;;;1.23;;
76105;SDS011;64832;45.274;5.880;2023-11-21T11:25:36;2.88;;;1.30;;
76105;SDS011;64832;45.274;5.880;2023-11-21T11:28:22;4.40;;;1.25;;
76105;SDS011;64832;45.274;5.880;2023-11-21T11:33:39;2.33;;;1.20;;
76105;SDS011;64832;45.274;5.880;2023-11-21T11:38:44;2.25;;;1.00;;
76105;SDS011;64832;45.274;5.880;2023-11-21T11:41:11;1.50;;;1.00;;
76105;SDS011;64832;45.274;5.880;2023-11-21T11:43:37;1.75;;;1.20;;
76105;SDS011;64832;45.274;5.880;2023-11-21T11:46:09;2.28;;;0.93;;
76105;SDS011;64832;45.274;5.880;2023-11-21T11:48:38;1.80;;;1.08;;
76105;SDS011;64832;45.274;5.880;2023-11-21T11:51:11;2.10;;;1.17;;
76105;SDS011;64832;45.274;5.880;2023-11-21T11:53:47;2.00;;;1.10;;
76105;SDS011;64832;45.274;5.880;2023-11-21T11:56:29;2.65;;;1.02;;
76105;SDS011;64832;45.274;5.880;2023-11-21T11:58:59;2.42;;;1.20;;
76105;SDS011;64832;45.274;5.880;2023-11-21T12:01:28;2.90;;;1.23;;
76105;SDS011;64832;45.274;5.880;2023-11-21T12:06:56;1.57;;;1.20;;
76105;SDS011;64832;45.274;5.880;2023-11-21T12:09:24;3.30;;;1.30;;
76105;SDS011;64832;45.274;5.880;2023-11-21T12:11:51;2.75;;;1.23;;
76105;SDS011;64832;45.274;5.880;2023-11-21T12:14:17;2.20;;;1.30;;
76105;SDS011;64832;45.274;5.880;2023-11-21T12:16:43;2.58;;;1.20;;
76105;SDS011;64832;45.274;5.880;2023-11-21T12:19:09;2.92;;;1.20;;
76105;SDS011;64832;45.274;5.880;2023-11-21T12:21:36;1.73;;;1.15;;
76105;SDS011;64832;45.274;5.880;2023-11-21T12:24:02;2.30;;;1.40;;
76105;SDS011;64832;45.274;5.880;2023-11-21T12:26:28;2.83;;;1.25;;
76105;SDS011;64832;45.274;5.880;2023-11-21T12:28:53;2.10;;;1.00;;
76105;SDS011;64832;45.274;5.880;2023-11-21T12:31:22;2.28;;;1.48;;
76105;SDS011;64832;45.274;5.880;2023-11-21T12:33:48;4.13;;;1.23;;
76105;SDS011;64832;45.274;5.880;2023-11-21T12:36:13;3.88;;;1.52;;
76105;SDS011;64832;45.274;5.880;2023-11-21T12:38:39;1.60;;;1.05;;
76105;SDS011;64832;45.274;5.880;2023-11-21T12:41:05;2.63;;;1.10;;
76105;SDS011;64832;45.274;5.880;2023-11-21T12:43:31;4.13;;;1.98;;
76105;SDS011;64832;45.274;5.880;2023-11-21T12:46:07;3.95;;;1.67;;
76105;SDS011;64832;45.274;5.880;2023-11-21T12:48:37;2.15;;;1.10;;
76105;SDS011;64832;45.274;5.880;2023-11-21T12:51:09;2.38;;;1.10;;
76105;SDS011;64832;45.274;5.880;2023-11-21T12:53:36;3.03;;;1.02;;
76105;SDS011;64832;45.274;5.880;2023-11-21T12:56:11;1.35;;;1.10;;
76105;SDS011;64832;45.274;5.880;2023-11-21T12:58:37;2.20;;;1.10;;
76105;SDS011;64832;45.274;5.880;2023-11-21T13:01:07;2.95;;;1.00;;
76105;SDS011;64832;45.274;5.880;2023-11-21T13:03:39;1.75;;;1.10;;
76105;SDS011;64832;45.274;5.880;2023-11-21T13:06:05;2.55;;;1.15;;
76105;SDS011;64832;45.274;5.880;2023-11-21T13:08:32;1.45;;;1.20;;
76105;SDS011;64832;45.274;5.880;2023-11-21T13:10:58;2.28;;;0.98;;
76105;SDS011;64832;45.274;5.880;2023-11-21T13:13:25;3.65;;;1.10;;
76105;SDS011;64832;45.274;5.880;2023-11-21T13:15:54;2.70;;;0.65;;
76105;SDS011;64832;45.274;5.880;2023-11-21T13:20:57;2.63;;;1.05;;
76105;SDS011;64832;45.274;5.880;2023-11-21T13:23:24;2.20;;;1.02;;
76105;SDS011;64832;45.274;5.880;2023-11-21T13:25:50;3.20;;;1.05;;
76105;SDS011;64832;45.274;5.880;2023-11-21T13:28:16;2.92;;;0.93;;
76105;SDS011;64832;45.274;5.880;2023-11-21T13:30:43;1.90;;;0.90;;
76105;SDS011;64832;45.274;5.880;2023-11-21T13:33:09;1.85;;;1.10;;
76105;SDS011;64832;45.274;5.880;2023-11-21T13:35:38;5.82;;;1.05;;
76105;SDS011;64832;45.274;5.880;2023-11-21T13:38:08;3.47;;;1.15;;
76105;SDS011;64832;45.274;5.880;2023-11-21T13:40:38;2.35;;;0.93;;
76105;SDS011;64832;45.274;5.880;2023-11-21T13:43:17;2.15;;;0.90;;
76105;SDS011;64832;45.274;5.880;2023-11-21T13:45:45;2.83;;;1.17;;
76105;SDS011;64832;45.274;5.880;2023-11-21T13:48:12;2.75;;;0.95;;
76105;SDS011;64832;45.274;5.880;2023-11-21T13:50:50;1.70;;;0.82;;
76105;SDS011;64832;45.274;5.880;2023-11-21T13:53:30;1.48;;;0.77;;
76105;SDS011;64832;45.274;5.880;2023-11-21T13:55:56;0.85;;;0.65;;
76105;SDS011;64832;45.274;5.880;2023-11-21T13:58:25;1.38;;;0.82;;
76105;SDS011;64832;45.274;5.880;2023-11-21T14:01:06;1.85;;;0.80;;
76105;SDS011;64832;45.274;5.880;2023-11-21T14:03:40;2.88;;;1.00;;
76105;SDS011;64832;45.274;5.880;2023-11-21T14:06:16;1.33;;;1.00;;
76105;SDS011;64832;45.274;5.880;2023-11-21T14:08:49;1.63;;;0.68;;
76105;SDS011;64832;45.274;5.880;2023-11-21T14:11:14;2.58;;;0.93;;
76105;SDS011;64832;45.274;5.880;2023-11-21T14:13:43;2.20;;;0.90;;
76105;SDS011;64832;45.274;5.880;2023-11-21T14:16:12;1.98;;;0.70;;
76105;SDS011;64832;45.274;5.880;2023-11-21T14:18:39;1.42;;;0.90;;
76105;SDS011;64832;45.274;5.880;2023-11-21T14:21:15;1.67;;;0.88;;
76105;SDS011;64832;45.274;5.880;2023-11-21T14:23:41;2.55;;;0.90;;
76105;SDS011;64832;45.274;5.880;2023-11-21T14:26:08;4.78;;;0.90;;
76105;SDS011;64832;45.274;5.880;2023-11-21T14:28:33;2.80;;;0.80;;
76105;SDS011;64832;45.274;5.880;2023-11-21T14:31:00;3.08;;;0.80;;
76105;SDS011;64832;45.274;5.880;2023-11-21T14:33:27;2.42;;;0.85;;
76105;SDS011;64832;45.274;5.880;2023-11-21T14:35:52;1.35;;;0.95;;
76105;SDS011;64832;45.274;5.880;2023-11-21T14:38:17;1.83;;;0.85;;
76105;SDS011;64832;45.274;5.880;2023-11-21T14:40:43;1.40;;;0.80;;
76105;SDS011;64832;45.274;5.880;2023-11-21T14:43:09;2.67;;;0.75;;
76105;SDS011;64832;45.274;5.880;2023-11-21T14:45:35;3.15;;;1.00;;
76105;SDS011;64832;45.274;5.880;2023-11-21T14:48:00;2.85;;;0.80;;
76105;SDS011;64832;45.274;5.880;2023-11-21T14:50:40;1.88;;;0.82;;
76105;SDS011;64832;45.274;5.880;2023-11-21T14:53:07;2.90;;;0.90;;
76105;SDS011;64832;45.274;5.880;2023-11-21T14:55:34;4.00;;;0.80;;
76105;SDS011;64832;45.274;5.880;2023-11-21T14:58:20;1.38;;;0.80;;